createdAt,value
2023-04-21T00:02:00.988Z,9.78
2023-04-21T00:07:08.892Z,9.78
2023-04-21T00:12:14.013Z,9.59
2023-04-21T00:17:19.428Z,9.42
2023-04-21T00:22:27.176Z,9.34
2023-04-21T00:27:34.395Z,9.37
2023-04-21T00:32:42.498Z,9.27
2023-04-21T00:37:51.416Z,9.34
2023-04-21T00:42:59.576Z,9.28
2023-04-21T00:48:07.247Z,9.44
2023-04-21T00:53:17.491Z,9.44
2023-04-21T00:58:23.359Z,9.52
2023-04-21T01:03:31.073Z,9.43
2023-04-21T01:08:39.607Z,9.55
2023-04-21T01:13:44.775Z,9.62
2023-04-21T01:18:50.021Z,9.58
2023-04-21T01:23:57.949Z,9.64
2023-04-21T01:29:03.002Z,9.68
2023-04-21T01:34:12.634Z,9.65
2023-04-21T01:39:20.723Z,9.61
2023-04-21T01:44:25.972Z,9.62
2023-04-21T01:49:30.958Z,9.67
2023-04-21T01:54:39.098Z,9.68
2023-04-21T01:59:46.604Z,9.79
2023-04-21T02:04:51.958Z,9.89
2023-04-21T02:09:59.666Z,10.01
2023-04-21T02:15:04.636Z,9.98
2023-04-21T02:20:12.296Z,10.01
2023-04-21T02:25:20.378Z,9.90
2023-04-21T02:30:25.533Z,9.84
2023-04-21T02:35:32.198Z,9.85
2023-04-21T02:40:40.017Z,9.89
2023-04-21T02:45:50.688Z,9.85
2023-04-21T02:50:56.651Z,9.84
2023-04-21T02:56:05.178Z,9.75
2023-04-21T03:01:10.324Z,9.74
2023-04-21T03:06:15.551Z,9.72
2023-04-21T03:11:26.090Z,9.67
2023-04-21T03:16:31.823Z,9.66
2023-04-21T03:21:40.640Z,9.62
2023-04-21T03:26:49.561Z,9.59
2023-04-21T03:31:54.698Z,9.63
2023-04-21T03:37:00.257Z,9.71
2023-04-21T03:42:15.254Z,9.71
2023-04-21T03:47:20.403Z,9.74
2023-04-21T03:52:25.474Z,9.75
2023-04-21T03:57:34.076Z,9.61
2023-04-21T04:02:39.781Z,9.59
2023-04-21T04:07:44.952Z,9.50
2023-04-21T04:12:55.717Z,9.52
2023-04-21T04:18:00.748Z,9.46
2023-04-21T04:23:05.834Z,9.70
2023-04-21T04:28:13.840Z,10.27
2023-04-21T04:33:20.070Z,10.69
2023-04-21T04:38:25.896Z,10.77
2023-04-21T04:43:34.339Z,11.57
2023-04-21T04:48:40.753Z,12.33
2023-04-21T04:53:46.032Z,12.71
2023-04-21T04:58:53.703Z,12.37
2023-04-21T05:04:03.768Z,12.50
2023-04-21T05:09:10.497Z,12.66
2023-04-21T05:14:18.410Z,13.00
2023-04-21T05:19:23.810Z,13.18
2023-04-21T05:24:29.161Z,13.89
2023-04-21T05:29:37.089Z,14.43
2023-04-21T05:34:42.275Z,14.95
2023-04-21T05:39:49.352Z,14.71
2023-04-21T05:44:57.336Z,15.53
2023-04-21T05:50:02.456Z,15.89
2023-04-21T05:55:08.445Z,17.09
2023-04-21T06:00:17.652Z,17.61
2023-04-21T06:05:23.244Z,16.95
2023-04-21T06:10:28.951Z,17.83
2023-04-21T06:15:36.609Z,17.31
2023-04-21T06:20:43.825Z,17.31
2023-04-21T06:25:48.997Z,17.85
2023-04-21T06:30:56.853Z,18.42
2023-04-21T06:36:02.989Z,18.37
2023-04-21T06:41:09.177Z,17.95
2023-04-21T06:46:16.983Z,17.73
2023-04-21T06:51:24.283Z,18.93
2023-04-21T06:56:30.451Z,18.21
2023-04-21T07:01:38.230Z,17.30
2023-04-21T07:06:43.739Z,16.88
2023-04-21T07:11:48.810Z,17.36
2023-04-21T07:16:57.485Z,16.98
2023-04-21T07:22:02.509Z,17.74
2023-04-21T07:27:07.915Z,16.75
2023-04-21T07:32:15.894Z,17.10
2023-04-21T07:37:22.854Z,17.15
2023-04-21T07:42:28.945Z,17.31
2023-04-21T07:47:37.141Z,17.49
2023-04-21T07:52:42.581Z,17.74
2023-04-21T07:57:49.146Z,18.21
2023-04-21T08:02:59.448Z,18.19
2023-04-21T08:08:04.762Z,18.58
2023-04-21T08:18:32.986Z,18.88
2023-04-21T08:23:38.168Z,18.75
2023-04-21T08:28:45.570Z,18.40
2023-04-21T08:34:01.068Z,18.70
2023-04-21T08:39:07.187Z,18.20
2023-04-21T08:44:12.819Z,18.83
2023-04-21T08:49:22.846Z,18.98
2023-04-21T08:54:29.781Z,19.00
2023-04-21T08:59:35.360Z,19.05
2023-04-21T09:04:47.538Z,19.30
2023-04-21T09:09:58.259Z,19.22
2023-04-21T09:15:08.038Z,18.81
2023-04-21T09:20:23.252Z,18.43
2023-04-21T09:25:28.631Z,19.34
2023-04-21T09:30:33.821Z,19.56
2023-04-21T09:35:41.853Z,18.96
2023-04-21T09:40:47.132Z,19.25
2023-04-21T09:45:52.864Z,19.49
2023-04-21T09:51:27.199Z,19.85
2023-04-21T09:56:28.526Z,19.82
2023-04-21T10:01:39.108Z,19.69
2023-04-21T10:06:48.499Z,18.81
2023-04-21T10:11:55.828Z,19.20
2023-04-21T10:17:06.713Z,19.68
2023-04-21T10:22:14.657Z,18.89
2023-04-21T10:27:34.918Z,18.93
2023-04-21T10:32:45.656Z,19.70
2023-04-21T10:37:55.931Z,19.90
2023-04-21T10:43:01.121Z,19.94
2023-04-21T10:48:16.797Z,19.97
2023-04-21T10:53:31.275Z,19.28
2023-04-21T10:58:42.335Z,20.09
2023-04-21T11:03:47.772Z,20.20
2023-04-21T11:09:03.945Z,20.13
2023-04-21T11:14:10.725Z,20.48
2023-04-21T11:19:18.680Z,19.42
2023-04-21T11:24:26.739Z,19.98
2023-04-21T11:29:32.354Z,19.62
2023-04-21T11:34:39.692Z,20.02
2023-04-21T11:39:49.519Z,19.28
2023-04-21T11:45:01.381Z,19.59
2023-04-21T11:50:07.110Z,19.49
2023-04-21T11:55:20.157Z,19.42
2023-04-21T12:00:25.411Z,19.93
2023-04-21T12:05:38.452Z,19.33
2023-04-21T12:10:48.213Z,19.37
2023-04-21T12:15:57.359Z,19.34
2023-04-21T12:21:08.350Z,19.09
2023-04-21T12:26:27.509Z,19.10
2023-04-21T12:31:34.919Z,19.29
2023-04-21T12:36:40.110Z,19.19
2023-04-21T12:41:52.189Z,19.39
2023-04-21T12:46:57.519Z,19.29
2023-04-21T12:52:07.617Z,19.06
2023-04-21T12:57:15.846Z,19.56
2023-04-21T13:02:21.645Z,19.57
2023-04-21T13:07:31.610Z,19.57
2023-04-21T13:12:39.506Z,19.71
2023-04-21T13:17:46.843Z,19.50
2023-04-21T13:22:51.831Z,19.77
2023-04-21T13:27:59.921Z,19.38
2023-04-21T13:33:05.001Z,19.41
2023-04-21T13:38:10.850Z,19.40
2023-04-21T13:43:19.003Z,19.38
2023-04-21T13:48:24.522Z,19.26
2023-04-21T13:53:30.932Z,19.55
2023-04-21T13:58:38.772Z,19.74
2023-04-21T14:03:44.165Z,19.86
2023-04-21T14:08:49.304Z,19.38
2023-04-21T14:14:09.052Z,19.14
2023-04-21T14:19:16.076Z,19.08
2023-04-21T14:24:21.934Z,19.23
2023-04-21T14:29:29.742Z,19.18
2023-04-21T14:34:34.767Z,19.36
2023-04-21T14:39:40.089Z,19.06
2023-04-21T14:44:47.805Z,18.92
2023-04-21T14:49:55.650Z,18.79
2023-04-21T14:55:01.500Z,19.03
2023-04-21T15:00:12.960Z,18.98
2023-04-21T15:05:18.902Z,19.06
2023-04-21T15:10:24.021Z,19.40
2023-04-21T15:15:31.864Z,18.73
2023-04-21T15:20:44.367Z,18.55
2023-04-21T15:25:53.113Z,18.72
2023-04-21T15:31:00.826Z,18.97
2023-04-21T15:36:06.002Z,18.67
2023-04-21T15:41:11.671Z,18.44
2023-04-21T15:46:21.478Z,18.70
2023-04-21T15:51:27.993Z,18.74
2023-04-21T15:56:37.005Z,18.73
2023-04-21T16:01:46.861Z,18.51
2023-04-21T16:06:52.001Z,18.51
2023-04-21T16:11:57.602Z,18.17
2023-04-21T16:17:05.389Z,18.17
2023-04-21T16:22:12.550Z,18.26
2023-04-21T16:27:17.732Z,18.31
2023-04-21T16:32:25.544Z,18.45
2023-04-21T16:37:32.849Z,18.17
2023-04-21T16:42:38.596Z,18.07
2023-04-21T16:47:46.883Z,17.91
2023-04-21T16:52:52.023Z,17.80
2023-04-21T16:57:57.509Z,17.71
2023-04-21T17:03:05.296Z,17.68
2023-04-21T17:08:10.762Z,17.55
2023-04-21T17:13:15.876Z,17.48
2023-04-21T17:18:29.349Z,17.30
2023-04-21T17:23:34.406Z,17.26
2023-04-21T17:28:40.331Z,17.12
2023-04-21T17:33:48.561Z,17.03
2023-04-21T17:38:55.102Z,16.94
2023-04-21T17:44:02.587Z,16.80
2023-04-21T17:49:10.318Z,16.66
2023-04-21T17:54:15.404Z,16.39
2023-04-21T17:59:20.686Z,16.26
2023-04-21T18:04:30.856Z,16.19
2023-04-21T18:09:36.028Z,16.00
2023-04-21T18:14:41.154Z,15.85
2023-04-21T18:19:49.209Z,15.76
2023-04-21T18:24:54.546Z,15.61
2023-04-21T18:29:59.588Z,15.55
2023-04-21T18:35:09.622Z,15.38
2023-04-21T18:40:15.426Z,15.17
2023-04-21T18:45:21.326Z,15.16
2023-04-21T18:50:30.342Z,15.04
2023-04-21T18:55:36.209Z,14.87
2023-04-21T19:00:41.416Z,14.90
2023-04-21T19:05:53.688Z,14.69
2023-04-21T19:11:01.171Z,14.65
2023-04-21T19:16:08.940Z,14.57
2023-04-21T19:21:16.714Z,14.39
2023-04-21T19:26:22.197Z,14.17
2023-04-21T19:31:27.306Z,13.93
2023-04-21T19:36:35.624Z,13.81
2023-04-21T19:41:43.215Z,13.73
2023-04-21T19:46:49.331Z,13.61
2023-04-21T19:51:57.107Z,13.60
2023-04-21T19:57:04.721Z,13.54
2023-04-21T20:02:10.774Z,13.45
2023-04-21T20:07:19.794Z,13.29
2023-04-21T20:12:25.974Z,13.19
2023-04-21T20:17:33.740Z,13.11
2023-04-21T20:22:41.694Z,13.07
2023-04-21T20:27:46.773Z,12.86
2023-04-21T20:32:54.254Z,12.84
2023-04-21T20:38:05.612Z,12.82
2023-04-21T20:43:12.722Z,12.77
2023-04-21T20:48:19.101Z,12.73
2023-04-21T20:53:29.540Z,12.58
2023-04-21T20:58:36.233Z,12.39
2023-04-21T21:03:43.418Z,12.47
2023-04-21T21:08:51.605Z,12.41
2023-04-21T21:13:56.679Z,12.19
2023-04-21T21:19:02.291Z,12.09
2023-04-21T21:24:10.236Z,11.97
2023-04-21T21:29:15.413Z,12.00
2023-04-21T21:34:21.877Z,11.91
2023-04-21T21:39:30.240Z,11.90
2023-04-21T21:44:36.535Z,11.97
2023-04-21T21:49:41.619Z,11.95
2023-04-21T21:54:50.085Z,11.72
2023-04-21T21:59:56.131Z,11.52
2023-04-21T22:05:01.186Z,11.29
2023-04-21T22:10:10.187Z,11.36
2023-04-21T22:15:15.570Z,11.33
2023-04-21T22:20:22.227Z,11.29
2023-04-21T22:25:31.131Z,11.08
2023-04-21T22:30:36.305Z,11.09
2023-04-21T22:35:41.540Z,11.03
2023-04-21T22:40:49.788Z,10.93
2023-04-21T22:45:55.069Z,10.89
2023-04-21T22:51:00.329Z,11.01
2023-04-21T22:56:11.485Z,11.51
2023-04-21T23:01:16.847Z,11.00
2023-04-21T23:06:21.939Z,10.68
2023-04-21T23:11:29.714Z,10.43
2023-04-21T23:16:34.920Z,10.32
2023-04-21T23:21:42.194Z,10.54
2023-04-21T23:26:49.902Z,10.29
2023-04-21T23:31:55.120Z,10.09
2023-04-21T23:37:00.679Z,9.95
2023-04-21T23:42:10.754Z,9.94
2023-04-21T23:47:17.184Z,9.79
2023-04-21T23:52:22.357Z,9.87
2023-04-21T23:57:30.321Z,10.01
